PWSweather.com
Personal Weather Stations
Station Observations
EA5BZ
Nuevo Altabix, ElcheES

Nuevo AltabixElcheES

Lat: 38.276, Lon: -0.671

Elevation: 0

Station Type: Oregon Scientific WMR-300

http://meteoelche.es

High Low Average
Temperature 67.5°F19.7°C 49.6°F9.8°C 56.7°F13.7°C
Dew Point 53.0°F11.7°C 42.4°F5.8°C 46.8°F8.2°C
Winds 10.1 mph 16.3 kmh Calm Calm 6.0 mph SW9.7 kmh SW
Wind Gusts 14.5 mph23.3 kmh -- 8.0 mph12.9 kmh
Humidity 83% 52% 70%
Pressure 30.47 in1031.8 mb 30.38 in1028.8 mb -
Precipitation 0.00 in0.0 mm - -
Hour Temp Dew Point Humidity Winds Wind Gusts Pressure Precip Precip Rate Daily Precip Total
12:00 AM 55.2°F12.9°C 45.2°F7.3°C 69% 6.5 mph WSW10.5 kmh WSW 7.6 mph12.2 kmh 30.43 in1030.5 mb 0.00 in0.0 mm 0.00 in0.0 mm 0.00 in0.0 mm
12:05 AM 55.1°F12.8°C 45.1°F7.3°C 69% 6.3 mph WSW10.1 kmh WSW 8.7 mph14.0 kmh 30.43 in1030.5 mb 0.00 in0.0 mm 0.00 in0.0 mm 0.00 in0.0 mm
12:10 AM 55.0°F12.8°C 45.3°F7.4°C 70% 5.8 mph WSW9.3 kmh WSW 8.1 mph13.0 kmh 30.42 in1030.1 mb 0.00 in0.0 mm 0.00 in0.0 mm 0.00 in0.0 mm
12:15 AM 54.9°F12.7°C 45.3°F7.4°C 70% 6.0 mph WSW9.7 kmh WSW 9.6 mph15.4 kmh 30.42 in1030.1 mb 0.00 in0.0 mm 0.00 in0.0 mm 0.00 in0.0 mm
12:20 AM 54.9°F12.7°C 45.3°F7.4°C 70% 6.5 mph WSW10.5 kmh WSW 10.3 mph16.6 kmh 30.42 in1030.1 mb 0.00 in0.0 mm 0.00 in0.0 mm 0.00 in0.0 mm
12:25 AM 54.8°F12.7°C 45.2°F7.3°C 70% 6.9 mph WSW11.1 kmh WSW 10.1 mph16.3 kmh 30.42 in1030.1 mb 0.00 in0.0 mm 0.00 in0.0 mm 0.00 in0.0 mm
12:30 AM 54.7°F12.6°C 45.1°F7.3°C 70% 8.1 mph WSW13.0 kmh WSW 11.9 mph19.2 kmh 30.42 in1030.1 mb 0.00 in0.0 mm 0.00 in0.0 mm 0.00 in0.0 mm
12:35 AM 54.9°F12.7°C 45.2°F7.3°C 70% 8.2 mph WSW13.2 kmh WSW 14.1 mph22.7 kmh 30.42 in1030.1 mb 0.00 in0.0 mm 0.00 in0.0 mm 0.00 in0.0 mm
12:40 AM 54.9°F12.7°C 44.9°F7.2°C 69% 8.7 mph WSW14.0 kmh WSW 14.5 mph23.3 kmh 30.42 in1030.1 mb 0.00 in0.0 mm 0.00 in0.0 mm 0.00 in0.0 mm
12:45 AM 54.9°F12.7°C 44.9°F7.2°C 69% 9.1 mph WSW14.6 kmh WSW 14.1 mph22.7 kmh 30.42 in1030.1 mb 0.00 in0.0 mm 0.00 in0.0 mm 0.00 in0.0 mm
12:50 AM 54.9°F12.7°C 44.9°F7.2°C 69% 10.1 mph WSW16.3 kmh WSW 14.1 mph22.7 kmh 30.42 in1030.1 mb 0.00 in0.0 mm 0.00 in0.0 mm 0.00 in0.0 mm
12:55 AM 54.9°F12.7°C 44.9°F7.2°C 69% 9.4 mph WSW15.1 kmh WSW 10.3 mph16.6 kmh 30.42 in1030.1 mb 0.00 in0.0 mm 0.00 in0.0 mm 0.00 in0.0 mm
01:00 AM 54.9°F12.7°C 45.2°F7.3°C 70% 7.4 mph W11.9 kmh W 8.7 mph14.0 kmh 30.42 in1030.1 mb 0.00 in0.0 mm 0.00 in0.0 mm 0.00 in0.0 mm
01:05 AM 54.9°F12.7°C 45.2°F7.3°C 70% 7.2 mph W11.6 kmh W 10.3 mph16.6 kmh 30.42 in1030.1 mb 0.00 in0.0 mm 0.00 in0.0 mm 0.00 in0.0 mm
01:10 AM 54.9°F12.7°C 44.9°F7.2°C 69% 6.5 mph WNW10.5 kmh WNW 8.1 mph13.0 kmh 30.42 in1030.1 mb 0.00 in0.0 mm 0.00 in0.0 mm 0.00 in0.0 mm
01:15 AM 54.9°F12.7°C 44.9°F7.2°C 69% 6.2 mph WNW10.0 kmh WNW 8.7 mph14.0 kmh 30.42 in1030.1 mb 0.00 in0.0 mm 0.00 in0.0 mm 0.00 in0.0 mm
01:20 AM 54.7°F12.6°C 44.8°F7.1°C 69% 5.4 mph WNW8.7 kmh WNW 5.8 mph9.3 kmh 30.42 in1030.1 mb 0.00 in0.0 mm 0.00 in0.0 mm 0.00 in0.0 mm
01:25 AM 54.6°F12.6°C 44.8°F7.1°C 69% 5.2 mph WNW8.4 kmh WNW 6.5 mph10.5 kmh 30.42 in1030.1 mb 0.00 in0.0 mm 0.00 in0.0 mm 0.00 in0.0 mm
01:30 AM 54.5°F12.5°C 44.9°F7.2°C 70% 4.7 mph W7.6 kmh W 7.4 mph11.9 kmh 30.42 in1030.1 mb 0.00 in0.0 mm 0.00 in0.0 mm 0.00 in0.0 mm
01:35 AM 54.5°F12.5°C 44.9°F7.2°C 70% 4.8 mph W7.7 kmh W 6.5 mph10.5 kmh 30.42 in1030.1 mb 0.00 in0.0 mm 0.00 in0.0 mm 0.00 in0.0 mm
01:40 AM 54.3°F12.4°C 44.8°F7.1°C 70% 5.1 mph WNW8.2 kmh WNW 7.4 mph11.9 kmh 30.42 in1030.1 mb 0.00 in0.0 mm 0.00 in0.0 mm 0.00 in0.0 mm
01:45 AM 54.3°F12.4°C 44.7°F7.1°C 70% 5.3 mph W8.5 kmh W 8.5 mph13.7 kmh 30.42 in1030.1 mb 0.00 in0.0 mm 0.00 in0.0 mm 0.00 in0.0 mm
01:50 AM 54.3°F12.4°C 44.9°F7.2°C 71% 5.8 mph WSW9.3 kmh WSW 8.7 mph14.0 kmh 30.42 in1030.1 mb 0.00 in0.0 mm 0.00 in0.0 mm 0.00 in0.0 mm
01:55 AM 54.3°F12.4°C 44.7°F7.1°C 70% 6.1 mph WSW9.8 kmh WSW 8.5 mph13.7 kmh 30.42 in1030.1 mb 0.00 in0.0 mm 0.00 in0.0 mm 0.00 in0.0 mm
02:00 AM 54.3°F12.4°C 44.7°F7.1°C 70% 6.9 mph WSW11.1 kmh WSW 8.7 mph14.0 kmh 30.42 in1030.1 mb 0.00 in0.0 mm 0.00 in0.0 mm 0.00 in0.0 mm
02:05 AM 54.1°F12.3°C 44.6°F7.0°C 70% 6.9 mph WSW11.1 kmh WSW 9.2 mph14.8 kmh 30.42 in1030.1 mb 0.00 in0.0 mm 0.00 in0.0 mm 0.00 in0.0 mm
02:10 AM 54.1°F12.3°C 44.8°F7.1°C 71% 6.9 mph W11.1 kmh W 11.2 mph18.0 kmh 30.42 in1030.1 mb 0.00 in0.0 mm 0.00 in0.0 mm 0.00 in0.0 mm
02:15 AM 54.0°F12.2°C 44.8°F7.1°C 71% 7.2 mph W11.6 kmh W 10.3 mph16.6 kmh 30.42 in1030.1 mb 0.00 in0.0 mm 0.00 in0.0 mm 0.00 in0.0 mm
02:20 AM 53.9°F12.2°C 44.7°F7.1°C 71% 8.1 mph W13.0 kmh W 10.1 mph16.3 kmh 30.42 in1030.1 mb 0.00 in0.0 mm 0.00 in0.0 mm 0.00 in0.0 mm
02:25 AM 53.7°F12.1°C 44.5°F6.9°C 71% 7.9 mph W12.7 kmh W 8.7 mph14.0 kmh 30.42 in1030.1 mb 0.00 in0.0 mm 0.00 in0.0 mm 0.00 in0.0 mm
02:30 AM 53.4°F11.9°C 44.4°F6.9°C 71% 7.4 mph W11.9 kmh W 9.2 mph14.8 kmh 30.42 in1030.1 mb 0.00 in0.0 mm 0.00 in0.0 mm 0.00 in0.0 mm
02:35 AM 53.2°F11.8°C 44.4°F6.9°C 72% 7.4 mph W11.9 kmh W 9.6 mph15.4 kmh 30.42 in1030.1 mb 0.00 in0.0 mm 0.00 in0.0 mm 0.00 in0.0 mm
02:40 AM 53.1°F11.7°C 44.5°F6.9°C 73% 7.4 mph W11.9 kmh W 10.3 mph16.6 kmh 30.42 in1030.1 mb 0.00 in0.0 mm 0.00 in0.0 mm 0.00 in0.0 mm
02:45 AM 53.1°F11.7°C 44.6°F7.0°C 73% 7.4 mph W11.9 kmh W 11.2 mph18.0 kmh 30.42 in1030.1 mb 0.00 in0.0 mm 0.00 in0.0 mm 0.00 in0.0 mm
02:50 AM 53.1°F11.7°C 44.6°F7.0°C 73% 7.6 mph W12.2 kmh W 11.4 mph18.3 kmh 30.42 in1030.1 mb 0.00 in0.0 mm 0.00 in0.0 mm 0.00 in0.0 mm
02:55 AM 53.1°F11.7°C 44.6°F7.0°C 73% 7.6 mph W12.2 kmh W 10.7 mph17.2 kmh 30.42 in1030.1 mb 0.00 in0.0 mm 0.00 in0.0 mm 0.00 in0.0 mm
03:00 AM 53.0°F11.7°C 44.5°F6.9°C 73% 7.6 mph W12.2 kmh W 8.7 mph14.0 kmh 30.42 in1030.1 mb 0.00 in0.0 mm 0.00 in0.0 mm 0.00 in0.0 mm
03:05 AM 52.9°F11.6°C 44.5°F6.9°C 73% 7.3 mph W11.7 kmh W 7.6 mph12.2 kmh 30.42 in1030.1 mb 0.00 in0.0 mm 0.00 in0.0 mm 0.00 in0.0 mm
03:10 AM 52.9°F11.6°C 44.5°F6.9°C 73% 6.5 mph W10.5 kmh W 6.9 mph11.1 kmh 30.42 in1030.1 mb 0.00 in0.0 mm 0.00 in0.0 mm 0.00 in0.0 mm
03:15 AM 52.7°F11.5°C 44.3°F6.8°C 73% 6.3 mph W10.1 kmh W 7.6 mph12.2 kmh 30.42 in1030.1 mb 0.00 in0.0 mm 0.00 in0.0 mm 0.00 in0.0 mm
03:20 AM 52.6°F11.4°C 44.4°F6.9°C 74% 5.8 mph W9.3 kmh W 7.4 mph11.9 kmh 30.42 in1030.1 mb 0.00 in0.0 mm 0.00 in0.0 mm 0.00 in0.0 mm
03:25 AM 52.5°F11.4°C 44.5°F6.9°C 74% 5.8 mph W9.3 kmh W 6.9 mph11.1 kmh 30.42 in1030.1 mb 0.00 in0.0 mm 0.00 in0.0 mm 0.00 in0.0 mm
03:30 AM 52.4°F11.3°C 44.4°F6.9°C 74% 5.8 mph W9.3 kmh W 7.6 mph12.2 kmh 30.42 in1030.1 mb 0.00 in0.0 mm 0.00 in0.0 mm 0.00 in0.0 mm
03:35 AM 52.3°F11.3°C 44.3°F6.8°C 74% 5.9 mph W9.5 kmh W 8.7 mph14.0 kmh 30.42 in1030.1 mb 0.00 in0.0 mm 0.00 in0.0 mm 0.00 in0.0 mm
03:40 AM 52.3°F11.3°C 44.3°F6.8°C 74% 6.3 mph W10.1 kmh W 8.7 mph14.0 kmh 30.42 in1030.1 mb 0.00 in0.0 mm 0.00 in0.0 mm 0.00 in0.0 mm
03:45 AM 52.3°F11.3°C 44.2°F6.8°C 74% 6.4 mph W10.3 kmh W 10.7 mph17.2 kmh 30.42 in1030.1 mb 0.00 in0.0 mm 0.00 in0.0 mm 0.00 in0.0 mm
03:50 AM 52.2°F11.2°C 44.1°F6.7°C 74% 6.9 mph W11.1 kmh W 10.1 mph16.3 kmh 30.42 in1030.1 mb 0.00 in0.0 mm 0.00 in0.0 mm 0.00 in0.0 mm
03:55 AM 52.2°F11.2°C 44.1°F6.7°C 74% 7.1 mph W11.4 kmh W 9.2 mph14.8 kmh 30.42 in1030.1 mb 0.00 in0.0 mm 0.00 in0.0 mm 0.00 in0.0 mm
04:00 AM 52.2°F11.2°C 44.1°F6.7°C 74% 7.6 mph W12.2 kmh W 8.5 mph13.7 kmh 30.42 in1030.1 mb 0.00 in0.0 mm 0.00 in0.0 mm 0.00 in0.0 mm
04:05 AM 52.1°F11.2°C 44.1°F6.7°C 74% 7.3 mph W11.7 kmh W 8.5 mph13.7 kmh 30.42 in1030.1 mb 0.00 in0.0 mm 0.00 in0.0 mm 0.00 in0.0 mm
04:10 AM 52.0°F11.1°C 44.1°F6.7°C 74% 6.5 mph W10.5 kmh W 8.7 mph14.0 kmh 30.42 in1030.1 mb 0.00 in0.0 mm 0.00 in0.0 mm 0.00 in0.0 mm
04:15 AM 52.0°F11.1°C 44.3°F6.8°C 75% 6.5 mph W10.5 kmh W 8.5 mph13.7 kmh 30.42 in1030.1 mb 0.00 in0.0 mm 0.00 in0.0 mm 0.00 in0.0 mm
04:20 AM 51.9°F11.1°C 44.2°F6.8°C 75% 6.5 mph W10.5 kmh W 8.7 mph14.0 kmh 30.42 in1030.1 mb 0.00 in0.0 mm 0.00 in0.0 mm 0.00 in0.0 mm
04:25 AM 51.7°F10.9°C 44.0°F6.7°C 75% 6.6 mph W10.6 kmh W 8.5 mph13.7 kmh 30.41 in1029.8 mb 0.00 in0.0 mm 0.00 in0.0 mm 0.00 in0.0 mm
04:30 AM 51.6°F10.9°C 44.0°F6.7°C 75% 6.9 mph WSW11.1 kmh WSW 7.6 mph12.2 kmh 30.41 in1029.8 mb 0.00 in0.0 mm 0.00 in0.0 mm 0.00 in0.0 mm
04:35 AM 51.6°F10.9°C 43.9°F6.6°C 75% 6.8 mph WSW10.9 kmh WSW 8.1 mph13.0 kmh 30.41 in1029.8 mb 0.00 in0.0 mm 0.00 in0.0 mm 0.00 in0.0 mm
04:40 AM 51.4°F10.8°C 43.8°F6.6°C 75% 6.5 mph W10.5 kmh W 8.5 mph13.7 kmh 30.41 in1029.8 mb 0.00 in0.0 mm 0.00 in0.0 mm 0.00 in0.0 mm
04:45 AM 51.4°F10.8°C 43.7°F6.5°C 75% 6.5 mph W10.5 kmh W 7.6 mph12.2 kmh 30.41 in1029.8 mb 0.00 in0.0 mm 0.00 in0.0 mm 0.00 in0.0 mm
04:50 AM 51.3°F10.7°C 43.6°F6.4°C 75% 6.5 mph W10.5 kmh W 9.6 mph15.4 kmh 30.41 in1029.8 mb 0.00 in0.0 mm 0.00 in0.0 mm 0.00 in0.0 mm
04:55 AM 51.2°F10.7°C 43.5°F6.4°C 75% 6.7 mph W10.8 kmh W 10.1 mph16.3 kmh 30.41 in1029.8 mb 0.00 in0.0 mm 0.00 in0.0 mm 0.00 in0.0 mm
05:00 AM 51.1°F10.6°C 43.4°F6.3°C 75% 7.4 mph W11.9 kmh W 10.1 mph16.3 kmh 30.41 in1029.8 mb 0.00 in0.0 mm 0.00 in0.0 mm 0.00 in0.0 mm
05:05 AM 51.1°F10.6°C 43.4°F6.3°C 75% 7.5 mph W12.1 kmh W 10.3 mph16.6 kmh 30.41 in1029.8 mb 0.00 in0.0 mm 0.00 in0.0 mm 0.00 in0.0 mm
05:10 AM 50.9°F10.5°C 43.3°F6.3°C 75% 8.1 mph W13.0 kmh W 10.1 mph16.3 kmh 30.41 in1029.8 mb 0.00 in0.0 mm 0.00 in0.0 mm 0.00 in0.0 mm
05:15 AM 50.9°F10.5°C 43.3°F6.3°C 75% 8.1 mph W13.0 kmh W 10.1 mph16.3 kmh 30.41 in1029.8 mb 0.00 in0.0 mm 0.00 in0.0 mm 0.00 in0.0 mm
05:20 AM 50.7°F10.4°C 43.1°F6.2°C 75% 8.1 mph W13.0 kmh W 10.3 mph16.6 kmh 30.41 in1029.8 mb 0.00 in0.0 mm 0.00 in0.0 mm 0.00 in0.0 mm
05:25 AM 50.7°F10.4°C 43.4°F6.3°C 76% 8.1 mph W13.0 kmh W 10.7 mph17.2 kmh 30.41 in1029.8 mb 0.00 in0.0 mm 0.00 in0.0 mm 0.00 in0.0 mm
05:30 AM 50.7°F10.4°C 43.4°F6.3°C 76% 8.1 mph W13.0 kmh W 10.3 mph16.6 kmh 30.41 in1029.8 mb 0.00 in0.0 mm 0.00 in0.0 mm 0.00 in0.0 mm
05:35 AM 50.7°F10.4°C 43.4°F6.3°C 76% 8.1 mph W13.0 kmh W 10.1 mph16.3 kmh 30.41 in1029.8 mb 0.00 in0.0 mm 0.00 in0.0 mm 0.00 in0.0 mm
05:40 AM 50.7°F10.4°C 43.4°F6.3°C 76% 8.1 mph W13.0 kmh W 9.6 mph15.4 kmh 30.41 in1029.8 mb 0.00 in0.0 mm 0.00 in0.0 mm 0.00 in0.0 mm
05:45 AM 50.5°F10.3°C 43.3°F6.3°C 76% 7.9 mph W12.7 kmh W 10.1 mph16.3 kmh 30.41 in1029.8 mb 0.00 in0.0 mm 0.00 in0.0 mm 0.00 in0.0 mm
05:50 AM 50.5°F10.3°C 43.3°F6.3°C 76% 7.6 mph W12.2 kmh W 10.3 mph16.6 kmh 30.41 in1029.8 mb 0.00 in0.0 mm 0.00 in0.0 mm 0.00 in0.0 mm
05:55 AM 50.5°F10.3°C 43.3°F6.3°C 76% 7.6 mph W12.2 kmh W 9.6 mph15.4 kmh 30.41 in1029.8 mb 0.00 in0.0 mm 0.00 in0.0 mm 0.00 in0.0 mm
06:00 AM 50.4°F10.2°C 43.1°F6.2°C 76% 7.6 mph W12.2 kmh W 11.4 mph18.3 kmh 30.41 in1029.8 mb 0.00 in0.0 mm 0.00 in0.0 mm 0.00 in0.0 mm
06:05 AM 50.4°F10.2°C 43.1°F6.2°C 76% 8.0 mph W12.9 kmh W 13.6 mph21.9 kmh 30.41 in1029.8 mb 0.00 in0.0 mm 0.00 in0.0 mm 0.00 in0.0 mm
06:10 AM 50.3°F10.2°C 43.1°F6.2°C 76% 9.2 mph WSW14.8 kmh WSW 13.4 mph21.6 kmh 30.41 in1029.8 mb 0.00 in0.0 mm 0.00 in0.0 mm 0.00 in0.0 mm
06:15 AM 50.2°F10.1°C 43.0°F6.1°C 76% 9.3 mph W15.0 kmh W 12.3 mph19.8 kmh 30.41 in1029.8 mb 0.00 in0.0 mm 0.00 in0.0 mm 0.00 in0.0 mm
06:20 AM 50.2°F10.1°C 42.9°F6.1°C 76% 9.6 mph W15.4 kmh W 10.7 mph17.2 kmh 30.41 in1029.8 mb 0.00 in0.0 mm 0.00 in0.0 mm 0.00 in0.0 mm
06:25 AM 50.2°F10.1°C 42.9°F6.1°C 76% 9.4 mph W15.1 kmh W 10.1 mph16.3 kmh 30.41 in1029.8 mb 0.00 in0.0 mm 0.00 in0.0 mm 0.00 in0.0 mm
06:30 AM 50.2°F10.1°C 42.9°F6.1°C 76% 8.7 mph W14.0 kmh W 10.3 mph16.6 kmh 30.42 in1030.1 mb 0.00 in0.0 mm 0.00 in0.0 mm 0.00 in0.0 mm
06:35 AM 50.1°F10.1°C 42.9°F6.1°C 76% 8.4 mph W13.5 kmh W 10.7 mph17.2 kmh 30.42 in1030.1 mb 0.00 in0.0 mm 0.00 in0.0 mm 0.00 in0.0 mm
06:40 AM 50.0°F10.0°C 42.7°F5.9°C 76% 7.6 mph W12.2 kmh W 11.2 mph18.0 kmh 30.42 in1030.1 mb 0.00 in0.0 mm 0.00 in0.0 mm 0.00 in0.0 mm
06:45 AM 49.9°F9.9°C 42.9°F6.1°C 77% 7.7 mph W12.4 kmh W 10.1 mph16.3 kmh 30.42 in1030.1 mb 0.00 in0.0 mm 0.00 in0.0 mm 0.00 in0.0 mm
06:50 AM 49.8°F9.9°C 42.9°F6.1°C 77% 8.1 mph W13.0 kmh W 10.3 mph16.6 kmh 30.42 in1030.1 mb 0.00 in0.0 mm 0.00 in0.0 mm 0.00 in0.0 mm
06:55 AM 49.8°F9.9°C 42.9°F6.1°C 77% 8.2 mph W13.2 kmh W 10.7 mph17.2 kmh 30.42 in1030.1 mb 0.00 in0.0 mm 0.00 in0.0 mm 0.00 in0.0 mm
07:00 AM 49.8°F9.9°C 42.9°F6.1°C 77% 8.5 mph W13.7 kmh W 10.7 mph17.2 kmh 30.42 in1030.1 mb 0.00 in0.0 mm 0.00 in0.0 mm 0.00 in0.0 mm
07:05 AM 49.8°F9.9°C 42.8°F6.0°C 77% 8.7 mph W14.0 kmh W 11.4 mph18.3 kmh 30.42 in1030.1 mb 0.00 in0.0 mm 0.00 in0.0 mm 0.00 in0.0 mm
07:10 AM 49.7°F9.8°C 42.8°F6.0°C 77% 9.2 mph W14.8 kmh W 10.3 mph16.6 kmh 30.42 in1030.1 mb 0.00 in0.0 mm 0.00 in0.0 mm 0.00 in0.0 mm
07:15 AM 49.8°F9.9°C 42.9°F6.1°C 77% 8.9 mph W14.3 kmh W 10.3 mph16.6 kmh 30.42 in1030.1 mb 0.00 in0.0 mm 0.00 in0.0 mm 0.00 in0.0 mm
07:20 AM 49.8°F9.9°C 42.9°F6.1°C 77% 8.1 mph W13.0 kmh W 11.9 mph19.2 kmh 30.42 in1030.1 mb 0.00 in0.0 mm 0.00 in0.0 mm 0.00 in0.0 mm
07:25 AM 49.8°F9.9°C 42.9°F6.1°C 77% 8.4 mph W13.5 kmh W 13.0 mph20.9 kmh 30.42 in1030.1 mb 0.00 in0.0 mm 0.00 in0.0 mm 0.00 in0.0 mm
07:30 AM 49.8°F9.9°C 42.9°F6.1°C 77% 9.6 mph W15.4 kmh W 12.3 mph19.8 kmh 30.43 in1030.5 mb 0.00 in0.0 mm 0.00 in0.0 mm 0.00 in0.0 mm
07:35 AM 49.8°F9.9°C 42.8°F6.0°C 77% 9.5 mph W15.3 kmh W 12.5 mph20.1 kmh 30.43 in1030.5 mb 0.00 in0.0 mm 0.00 in0.0 mm 0.00 in0.0 mm
07:40 AM 49.8°F9.9°C 42.9°F6.1°C 77% 9.2 mph W14.8 kmh W 13.0 mph20.9 kmh 30.43 in1030.5 mb 0.00 in0.0 mm 0.00 in0.0 mm 0.00 in0.0 mm
07:45 AM 49.8°F9.9°C 42.7°F5.9°C 76% 9.3 mph W15.0 kmh W 11.4 mph18.3 kmh 30.43 in1030.5 mb 0.00 in0.0 mm 0.00 in0.0 mm 0.00 in0.0 mm
07:50 AM 49.8°F9.9°C 42.6°F5.9°C 76% 9.6 mph W15.4 kmh W 11.4 mph18.3 kmh 30.43 in1030.5 mb 0.00 in0.0 mm 0.00 in0.0 mm 0.00 in0.0 mm
07:55 AM 49.8°F9.9°C 42.6°F5.9°C 76% 9.5 mph W15.3 kmh W 11.4 mph18.3 kmh 30.43 in1030.5 mb 0.00 in0.0 mm 0.00 in0.0 mm 0.00 in0.0 mm
08:00 AM 49.8°F9.9°C 42.6°F5.9°C 76% 9.2 mph W14.8 kmh W 11.2 mph18.0 kmh 30.43 in1030.5 mb 0.00 in0.0 mm 0.00 in0.0 mm 0.00 in0.0 mm
08:05 AM 49.8°F9.9°C 42.6°F5.9°C 76% 9.0 mph W14.5 kmh W 11.2 mph18.0 kmh 30.43 in1030.5 mb 0.00 in0.0 mm 0.00 in0.0 mm 0.00 in0.0 mm
08:10 AM 49.8°F9.9°C 42.6°F5.9°C 76% 8.5 mph W13.7 kmh W 11.4 mph18.3 kmh 30.43 in1030.5 mb 0.00 in0.0 mm 0.00 in0.0 mm 0.00 in0.0 mm
08:15 AM 49.7°F9.8°C 42.5°F5.8°C 76% 8.5 mph W13.7 kmh W 10.7 mph17.2 kmh 30.43 in1030.5 mb 0.00 in0.0 mm 0.00 in0.0 mm 0.00 in0.0 mm
08:20 AM 49.6°F9.8°C 42.4°F5.8°C 76% 8.5 mph W13.7 kmh W 9.2 mph14.8 kmh 30.43 in1030.5 mb 0.00 in0.0 mm 0.00 in0.0 mm 0.00 in0.0 mm
08:25 AM 49.6°F9.8°C 42.5°F5.8°C 76% 8.4 mph W13.5 kmh W 10.7 mph17.2 kmh 30.43 in1030.5 mb 0.00 in0.0 mm 0.00 in0.0 mm 0.00 in0.0 mm
08:30 AM 49.6°F9.8°C 42.7°F5.9°C 77% 8.1 mph W13.0 kmh W 12.5 mph20.1 kmh 30.43 in1030.5 mb 0.00 in0.0 mm 0.00 in0.0 mm 0.00 in0.0 mm
08:35 AM 49.6°F9.8°C 42.7°F5.9°C 77% 8.5 mph W13.7 kmh W 13.6 mph21.9 kmh 30.43 in1030.5 mb 0.00 in0.0 mm 0.00 in0.0 mm 0.00 in0.0 mm
08:40 AM 49.7°F9.8°C 42.7°F5.9°C 77% 10.1 mph W16.3 kmh W 11.9 mph19.2 kmh 30.43 in1030.5 mb 0.00 in0.0 mm 0.00 in0.0 mm 0.00 in0.0 mm
08:45 AM 49.9°F9.9°C 42.7°F5.9°C 76% 9.8 mph W15.8 kmh W 11.4 mph18.3 kmh 30.43 in1030.5 mb 0.00 in0.0 mm 0.00 in0.0 mm 0.00 in0.0 mm
08:50 AM 50.2°F10.1°C 43.0°F6.1°C 76% 9.2 mph W14.8 kmh W 11.9 mph19.2 kmh 30.43 in1030.5 mb 0.00 in0.0 mm 0.00 in0.0 mm 0.00 in0.0 mm
08:55 AM 50.6°F10.3°C 43.0°F6.1°C 75% 9.1 mph W14.6 kmh W 11.9 mph19.2 kmh 30.43 in1030.5 mb 0.00 in0.0 mm 0.00 in0.0 mm 0.00 in0.0 mm
09:00 AM 50.9°F10.5°C 43.1°F6.2°C 74% 8.7 mph W14.0 kmh W 12.3 mph19.8 kmh 30.43 in1030.5 mb 0.00 in0.0 mm 0.00 in0.0 mm 0.00 in0.0 mm
09:05 AM 51.3°F10.7°C 43.3°F6.3°C 74% 8.8 mph W14.2 kmh W 11.4 mph18.3 kmh 30.43 in1030.5 mb 0.00 in0.0 mm 0.00 in0.0 mm 0.00 in0.0 mm
09:10 AM 51.6°F10.9°C 43.3°F6.3°C 73% 9.2 mph W14.8 kmh W 11.9 mph19.2 kmh 30.44 in1030.8 mb 0.00 in0.0 mm 0.00 in0.0 mm 0.00 in0.0 mm
09:15 AM 52.0°F11.1°C 43.4°F6.3°C 72% 9.3 mph W15.0 kmh W 12.5 mph20.1 kmh 30.44 in1030.8 mb 0.00 in0.0 mm 0.00 in0.0 mm 0.00 in0.0 mm
09:20 AM 52.3°F11.3°C 43.5°F6.4°C 72% 9.6 mph W15.4 kmh W 10.7 mph17.2 kmh 30.44 in1030.8 mb 0.00 in0.0 mm 0.00 in0.0 mm 0.00 in0.0 mm
09:25 AM 52.7°F11.5°C 43.5°F6.4°C 71% 9.2 mph W14.8 kmh W 11.2 mph18.0 kmh 30.44 in1030.8 mb 0.00 in0.0 mm 0.00 in0.0 mm 0.00 in0.0 mm
09:30 AM 53.0°F11.7°C 43.6°F6.4°C 70% 8.1 mph WSW13.0 kmh WSW 10.7 mph17.2 kmh 30.44 in1030.8 mb 0.00 in0.0 mm 0.00 in0.0 mm 0.00 in0.0 mm
09:35 AM 53.4°F11.9°C 43.8°F6.6°C 70% 8.2 mph W13.2 kmh W 11.2 mph18.0 kmh 30.44 in1030.8 mb 0.00 in0.0 mm 0.00 in0.0 mm 0.00 in0.0 mm
09:40 AM 53.8°F12.1°C 43.8°F6.6°C 69% 8.5 mph W13.7 kmh W 10.7 mph17.2 kmh 30.45 in1031.2 mb 0.00 in0.0 mm 0.00 in0.0 mm 0.00 in0.0 mm
09:45 AM 54.1°F12.3°C 43.9°F6.6°C 68% 8.4 mph W13.5 kmh W 10.7 mph17.2 kmh 30.45 in1031.2 mb 0.00 in0.0 mm 0.00 in0.0 mm 0.00 in0.0 mm
09:50 AM 54.5°F12.5°C 44.1°F6.7°C 68% 8.1 mph W13.0 kmh W 11.2 mph18.0 kmh 30.45 in1031.2 mb 0.00 in0.0 mm 0.00 in0.0 mm 0.00 in0.0 mm
09:55 AM 54.9°F12.7°C 44.2°F6.8°C 67% 8.1 mph W13.0 kmh W 10.3 mph16.6 kmh 30.45 in1031.2 mb 0.00 in0.0 mm 0.00 in0.0 mm 0.00 in0.0 mm
10:00 AM 55.4°F13.0°C 44.6°F7.0°C 67% 8.1 mph W13.0 kmh W 10.1 mph16.3 kmh 30.45 in1031.2 mb 0.00 in0.0 mm 0.00 in0.0 mm 0.00 in0.0 mm
10:05 AM 55.9°F13.3°C 44.8°F7.1°C 66% 7.8 mph W12.6 kmh W 10.3 mph16.6 kmh 30.45 in1031.2 mb 0.00 in0.0 mm 0.00 in0.0 mm 0.00 in0.0 mm
10:10 AM 56.4°F13.6°C 44.8°F7.1°C 65% 6.9 mph W11.1 kmh W 10.7 mph17.2 kmh 30.46 in1031.5 mb 0.00 in0.0 mm 0.00 in0.0 mm 0.00 in0.0 mm
10:15 AM 56.8°F13.8°C 44.9°F7.2°C 64% 7.0 mph W11.3 kmh W 9.2 mph14.8 kmh 30.46 in1031.5 mb 0.00 in0.0 mm 0.00 in0.0 mm 0.00 in0.0 mm
10:20 AM 57.1°F13.9°C 45.0°F7.2°C 64% 7.4 mph W11.9 kmh W 9.2 mph14.8 kmh 30.46 in1031.5 mb 0.00 in0.0 mm 0.00 in0.0 mm 0.00 in0.0 mm
10:25 AM 57.5°F14.2°C 45.3°F7.4°C 64% 7.2 mph WSW11.6 kmh WSW 9.2 mph14.8 kmh 30.46 in1031.5 mb 0.00 in0.0 mm 0.00 in0.0 mm 0.00 in0.0 mm
10:30 AM 57.9°F14.4°C 45.4°F7.4°C 63% 6.5 mph WSW10.5 kmh WSW 8.1 mph13.0 kmh 30.47 in1031.8 mb 0.00 in0.0 mm 0.00 in0.0 mm 0.00 in0.0 mm
10:35 AM 58.3°F14.6°C 45.5°F7.5°C 62% 6.3 mph WSW10.1 kmh WSW 6.9 mph11.1 kmh 30.47 in1031.8 mb 0.00 in0.0 mm 0.00 in0.0 mm 0.00 in0.0 mm
10:40 AM 58.7°F14.8°C 45.7°F7.6°C 62% 5.8 mph WSW9.3 kmh WSW 7.6 mph12.2 kmh 30.47 in1031.8 mb 0.00 in0.0 mm 0.00 in0.0 mm 0.00 in0.0 mm
10:45 AM 59.2°F15.1°C 45.9°F7.7°C 61% 5.8 mph WSW9.3 kmh WSW 7.6 mph12.2 kmh 30.47 in1031.8 mb 0.00 in0.0 mm 0.00 in0.0 mm 0.00 in0.0 mm
10:50 AM 59.6°F15.3°C 46.1°F7.8°C 61% 5.8 mph WSW9.3 kmh WSW 7.6 mph12.2 kmh 30.47 in1031.8 mb 0.00 in0.0 mm 0.00 in0.0 mm 0.00 in0.0 mm
10:55 AM 59.8°F15.4°C 45.9°F7.7°C 60% 5.5 mph WSW8.9 kmh WSW 7.6 mph12.2 kmh 30.47 in1031.8 mb 0.00 in0.0 mm 0.00 in0.0 mm 0.00 in0.0 mm
11:00 AM 60.1°F15.6°C 46.2°F7.9°C 60% 4.7 mph SW7.6 kmh SW 8.1 mph13.0 kmh 30.47 in1031.8 mb 0.00 in0.0 mm 0.00 in0.0 mm 0.00 in0.0 mm
11:05 AM 60.3°F15.7°C 46.2°F7.9°C 60% 4.9 mph SW7.9 kmh SW 8.1 mph13.0 kmh 30.47 in1031.8 mb 0.00 in0.0 mm 0.00 in0.0 mm 0.00 in0.0 mm
11:10 AM 60.6°F15.9°C 46.1°F7.8°C 59% 5.4 mph WSW8.7 kmh WSW 7.4 mph11.9 kmh 30.47 in1031.8 mb 0.00 in0.0 mm 0.00 in0.0 mm 0.00 in0.0 mm
11:15 AM 60.9°F16.1°C 46.4°F8.0°C 59% 5.2 mph WSW8.4 kmh WSW 6.9 mph11.1 kmh 30.47 in1031.8 mb 0.00 in0.0 mm 0.00 in0.0 mm 0.00 in0.0 mm
11:20 AM 61.1°F16.2°C 46.6°F8.1°C 59% 4.7 mph SW7.6 kmh SW 8.1 mph13.0 kmh 30.47 in1031.8 mb 0.00 in0.0 mm 0.00 in0.0 mm 0.00 in0.0 mm
11:25 AM 61.2°F16.2°C 46.8°F8.2°C 59% 4.9 mph SW7.9 kmh SW 6.9 mph11.1 kmh 30.46 in1031.5 mb 0.00 in0.0 mm 0.00 in0.0 mm 0.00 in0.0 mm
11:30 AM 61.4°F16.3°C 46.8°F8.2°C 59% 5.4 mph WSW8.7 kmh WSW 7.6 mph12.2 kmh 30.46 in1031.5 mb 0.00 in0.0 mm 0.00 in0.0 mm 0.00 in0.0 mm
11:35 AM 61.8°F16.6°C 46.9°F8.3°C 58% 5.3 mph WSW8.5 kmh WSW 7.4 mph11.9 kmh 30.46 in1031.5 mb 0.00 in0.0 mm 0.00 in0.0 mm 0.00 in0.0 mm
11:40 AM 62.1°F16.7°C 46.9°F8.3°C 57% 5.1 mph WSW8.2 kmh WSW 7.4 mph11.9 kmh 30.46 in1031.5 mb 0.00 in0.0 mm 0.00 in0.0 mm 0.00 in0.0 mm
11:45 AM 62.4°F16.9°C 46.9°F8.3°C 57% 5.1 mph WSW8.2 kmh WSW 6.9 mph11.1 kmh 30.45 in1031.2 mb 0.00 in0.0 mm 0.00 in0.0 mm 0.00 in0.0 mm
11:50 AM 62.8°F17.1°C 47.3°F8.5°C 57% 5.1 mph WSW8.2 kmh WSW 6.9 mph11.1 kmh 30.45 in1031.2 mb 0.00 in0.0 mm 0.00 in0.0 mm 0.00 in0.0 mm
11:55 AM 63.1°F17.3°C 47.1°F8.4°C 56% 4.9 mph WSW7.9 kmh WSW 5.8 mph9.3 kmh 30.45 in1031.2 mb 0.00 in0.0 mm 0.00 in0.0 mm 0.00 in0.0 mm
12:00 PM 63.4°F17.4°C 47.4°F8.6°C 56% 4.3 mph SW6.9 kmh SW 5.8 mph9.3 kmh 30.45 in1031.2 mb 0.00 in0.0 mm 0.00 in0.0 mm 0.00 in0.0 mm
12:05 PM 63.7°F17.6°C 47.5°F8.6°C 56% 4.1 mph SW6.6 kmh SW 5.1 mph8.2 kmh 30.45 in1031.2 mb 0.00 in0.0 mm 0.00 in0.0 mm 0.00 in0.0 mm
12:10 PM 64.0°F17.8°C 47.5°F8.6°C 55% 3.6 mph SW5.8 kmh SW 5.4 mph8.7 kmh 30.45 in1031.2 mb 0.00 in0.0 mm 0.00 in0.0 mm 0.00 in0.0 mm
12:15 PM 64.2°F17.9°C 47.6°F8.7°C 55% 3.6 mph SW5.8 kmh SW 6.5 mph10.5 kmh 30.45 in1031.2 mb 0.00 in0.0 mm 0.00 in0.0 mm 0.00 in0.0 mm
12:20 PM 64.2°F17.9°C 47.6°F8.7°C 55% 3.6 mph SW5.8 kmh SW 6.9 mph11.1 kmh 30.45 in1031.2 mb 0.00 in0.0 mm 0.00 in0.0 mm 0.00 in0.0 mm
12:25 PM 64.0°F17.8°C 47.6°F8.7°C 55% 3.7 mph SW6.0 kmh SW 7.4 mph11.9 kmh 30.44 in1030.8 mb 0.00 in0.0 mm 0.00 in0.0 mm 0.00 in0.0 mm
12:30 PM 64.2°F17.9°C 47.7°F8.7°C 55% 4.3 mph SSW6.9 kmh SSW 5.1 mph8.2 kmh 30.44 in1030.8 mb 0.00 in0.0 mm 0.00 in0.0 mm 0.00 in0.0 mm
12:35 PM 64.5°F18.1°C 48.0°F8.9°C 55% 4.0 mph SSW6.4 kmh SSW 5.8 mph9.3 kmh 30.44 in1030.8 mb 0.00 in0.0 mm 0.00 in0.0 mm 0.00 in0.0 mm
12:40 PM 64.8°F18.2°C 48.4°F9.1°C 55% 3.1 mph SSW5.0 kmh SSW 9.2 mph14.8 kmh 30.43 in1030.5 mb 0.00 in0.0 mm 0.00 in0.0 mm 0.00 in0.0 mm
12:45 PM 64.8°F18.2°C 48.7°F9.3°C 56% 3.7 mph SSW6.0 kmh SSW 8.5 mph13.7 kmh 30.43 in1030.5 mb 0.00 in0.0 mm 0.00 in0.0 mm 0.00 in0.0 mm
12:50 PM 64.8°F18.2°C 48.7°F9.3°C 56% 5.4 mph SW8.7 kmh SW 7.6 mph12.2 kmh 30.43 in1030.5 mb 0.00 in0.0 mm 0.00 in0.0 mm 0.00 in0.0 mm
12:55 PM 64.9°F18.3°C 48.8°F9.3°C 56% 5.2 mph SW8.4 kmh SW 7.4 mph11.9 kmh 30.43 in1030.5 mb 0.00 in0.0 mm 0.00 in0.0 mm 0.00 in0.0 mm
01:00 PM 64.9°F18.3°C 48.8°F9.3°C 56% 4.7 mph SW7.6 kmh SW 6.9 mph11.1 kmh 30.43 in1030.5 mb 0.00 in0.0 mm 0.00 in0.0 mm 0.00 in0.0 mm
01:05 PM 64.8°F18.2°C 48.3°F9.1°C 55% 4.6 mph SW7.4 kmh SW 7.6 mph12.2 kmh 30.43 in1030.5 mb 0.00 in0.0 mm 0.00 in0.0 mm 0.00 in0.0 mm
01:10 PM 64.6°F18.1°C 48.5°F9.2°C 56% 4.3 mph SSW6.9 kmh SSW 6.3 mph10.1 kmh 30.42 in1030.1 mb 0.00 in0.0 mm 0.00 in0.0 mm 0.00 in0.0 mm
01:15 PM 64.8°F18.2°C 48.3°F9.1°C 55% 4.2 mph SSW6.8 kmh SSW 5.1 mph8.2 kmh 30.42 in1030.1 mb 0.00 in0.0 mm 0.00 in0.0 mm 0.00 in0.0 mm
01:20 PM 64.9°F18.3°C 48.4°F9.1°C 55% 4.0 mph SSW6.4 kmh SSW 5.4 mph8.7 kmh 30.42 in1030.1 mb 0.00 in0.0 mm 0.00 in0.0 mm 0.00 in0.0 mm
01:25 PM 64.9°F18.3°C 48.6°F9.2°C 55% 3.9 mph SSW6.3 kmh SSW 4.3 mph6.9 kmh 30.41 in1029.8 mb 0.00 in0.0 mm 0.00 in0.0 mm 0.00 in0.0 mm
01:30 PM 65.3°F18.5°C 48.5°F9.2°C 55% 3.6 mph S5.8 kmh S 6.5 mph10.5 kmh 30.41 in1029.8 mb 0.00 in0.0 mm 0.00 in0.0 mm 0.00 in0.0 mm
01:35 PM 65.6°F18.7°C 48.5°F9.2°C 54% 3.6 mph S5.8 kmh S 6.9 mph11.1 kmh 30.41 in1029.8 mb 0.00 in0.0 mm 0.00 in0.0 mm 0.00 in0.0 mm
01:40 PM 65.6°F18.7°C 48.5°F9.2°C 54% 3.6 mph SSW5.8 kmh SSW 4.7 mph7.6 kmh 30.41 in1029.8 mb 0.00 in0.0 mm 0.00 in0.0 mm 0.00 in0.0 mm
01:45 PM 65.7°F18.7°C 48.6°F9.2°C 54% 3.5 mph S5.6 kmh S 6.3 mph10.1 kmh 30.41 in1029.8 mb 0.00 in0.0 mm 0.00 in0.0 mm 0.00 in0.0 mm
01:50 PM 65.8°F18.8°C 48.6°F9.2°C 54% 3.1 mph SE5.0 kmh SE 4.7 mph7.6 kmh 30.41 in1029.8 mb 0.00 in0.0 mm 0.00 in0.0 mm 0.00 in0.0 mm
01:55 PM 65.6°F18.7°C 48.1°F8.9°C 53% 3.1 mph SE5.0 kmh SE 5.4 mph8.7 kmh 30.41 in1029.8 mb 0.00 in0.0 mm 0.00 in0.0 mm 0.00 in0.0 mm
02:00 PM 65.5°F18.6°C 48.8°F9.3°C 55% 3.1 mph SE5.0 kmh SE 4.7 mph7.6 kmh 30.40 in1029.5 mb 0.00 in0.0 mm 0.00 in0.0 mm 0.00 in0.0 mm
02:05 PM 65.9°F18.8°C 48.8°F9.3°C 54% 3.1 mph SE5.0 kmh SE 5.8 mph9.3 kmh 30.40 in1029.5 mb 0.00 in0.0 mm 0.00 in0.0 mm 0.00 in0.0 mm
02:10 PM 66.0°F18.9°C 48.9°F9.4°C 54% 2.9 mph S4.7 kmh S 5.4 mph8.7 kmh 30.40 in1029.5 mb 0.00 in0.0 mm 0.00 in0.0 mm 0.00 in0.0 mm
02:15 PM 66.2°F19.0°C 48.7°F9.3°C 53% 3.0 mph SSE4.8 kmh SSE 5.4 mph8.7 kmh 30.40 in1029.5 mb 0.00 in0.0 mm 0.00 in0.0 mm 0.00 in0.0 mm
02:20 PM 66.1°F18.9°C 49.0°F9.4°C 54% 3.1 mph SE5.0 kmh SE 6.5 mph10.5 kmh 30.40 in1029.5 mb 0.00 in0.0 mm 0.00 in0.0 mm 0.00 in0.0 mm
02:25 PM 66.1°F18.9°C 49.4°F9.7°C 55% 3.2 mph SE5.1 kmh SE 7.4 mph11.9 kmh 30.39 in1029.1 mb 0.00 in0.0 mm 0.00 in0.0 mm 0.00 in0.0 mm
02:30 PM 66.0°F18.9°C 49.2°F9.6°C 55% 3.6 mph SSE5.8 kmh SSE 6.9 mph11.1 kmh 30.39 in1029.1 mb 0.00 in0.0 mm 0.00 in0.0 mm 0.00 in0.0 mm
02:35 PM 66.0°F18.9°C 49.4°F9.7°C 55% 3.7 mph SSE6.0 kmh SSE 6.9 mph11.1 kmh 30.39 in1029.1 mb 0.00 in0.0 mm 0.00 in0.0 mm 0.00 in0.0 mm
02:40 PM 66.1°F18.9°C 49.9°F9.9°C 56% 4.0 mph SSE6.4 kmh SSE 7.4 mph11.9 kmh 30.39 in1029.1 mb 0.00 in0.0 mm 0.00 in0.0 mm 0.00 in0.0 mm
02:45 PM 66.3°F19.1°C 50.0°F10.0°C 56% 4.1 mph S6.6 kmh S 7.6 mph12.2 kmh 30.39 in1029.1 mb 0.00 in0.0 mm 0.00 in0.0 mm 0.00 in0.0 mm
02:50 PM 66.6°F19.2°C 49.9°F9.9°C 55% 4.3 mph SSW6.9 kmh SSW 6.5 mph10.5 kmh 30.39 in1029.1 mb 0.00 in0.0 mm 0.00 in0.0 mm 0.00 in0.0 mm
02:55 PM 66.6°F19.2°C 50.1°F10.1°C 55% 4.1 mph S6.6 kmh S 5.4 mph8.7 kmh 30.39 in1029.1 mb 0.00 in0.0 mm 0.00 in0.0 mm 0.00 in0.0 mm
03:00 PM 66.9°F19.4°C 50.1°F10.1°C 55% 3.6 mph S5.8 kmh S 7.4 mph11.9 kmh 30.39 in1029.1 mb 0.00 in0.0 mm 0.00 in0.0 mm 0.00 in0.0 mm
03:05 PM 66.6°F19.2°C 49.7°F9.8°C 55% 3.7 mph S6.0 kmh S 7.6 mph12.2 kmh 30.39 in1029.1 mb 0.00 in0.0 mm 0.00 in0.0 mm 0.00 in0.0 mm
03:10 PM 66.3°F19.1°C 50.0°F10.0°C 56% 4.3 mph S6.9 kmh S 6.9 mph11.1 kmh 30.39 in1029.1 mb 0.00 in0.0 mm 0.00 in0.0 mm 0.00 in0.0 mm
03:15 PM 66.2°F19.0°C 49.8°F9.9°C 56% 4.4 mph S7.1 kmh S 7.4 mph11.9 kmh 30.39 in1029.1 mb 0.00 in0.0 mm 0.00 in0.0 mm 0.00 in0.0 mm
03:20 PM 66.3°F19.1°C 49.8°F9.9°C 55% 4.7 mph S7.6 kmh S 5.8 mph9.3 kmh 30.39 in1029.1 mb 0.00 in0.0 mm 0.00 in0.0 mm 0.00 in0.0 mm
03:25 PM 66.4°F19.1°C 49.7°F9.8°C 55% 4.4 mph S7.1 kmh S 5.8 mph9.3 kmh 30.39 in1029.1 mb 0.00 in0.0 mm 0.00 in0.0 mm 0.00 in0.0 mm
03:30 PM 66.6°F19.2°C 50.0°F10.0°C 55% 3.6 mph SSE5.8 kmh SSE 6.9 mph11.1 kmh 30.39 in1029.1 mb 0.00 in0.0 mm 0.00 in0.0 mm 0.00 in0.0 mm
03:35 PM 67.1°F19.5°C 50.0°F10.0°C 54% 3.7 mph S6.0 kmh S 6.5 mph10.5 kmh 30.39 in1029.1 mb 0.00 in0.0 mm 0.00 in0.0 mm 0.00 in0.0 mm
03:40 PM 67.5°F19.7°C 49.9°F9.9°C 53% 4.0 mph SW6.4 kmh SW 6.5 mph10.5 kmh 30.38 in1028.8 mb 0.00 in0.0 mm 0.00 in0.0 mm 0.00 in0.0 mm
03:45 PM 67.5°F19.7°C 49.8°F9.9°C 53% 4.0 mph SSW6.4 kmh SSW 6.9 mph11.1 kmh 30.38 in1028.8 mb 0.00 in0.0 mm 0.00 in0.0 mm 0.00 in0.0 mm
03:50 PM 67.3°F19.6°C 49.2°F9.6°C 52% 4.0 mph S6.4 kmh S 5.4 mph8.7 kmh 30.38 in1028.8 mb 0.00 in0.0 mm 0.00 in0.0 mm 0.00 in0.0 mm
03:55 PM 67.0°F19.4°C 49.1°F9.5°C 53% 3.9 mph S6.3 kmh S 6.3 mph10.1 kmh 30.38 in1028.8 mb 0.00 in0.0 mm 0.00 in0.0 mm 0.00 in0.0 mm
04:00 PM 66.7°F19.3°C 49.1°F9.5°C 53% 3.6 mph SE5.8 kmh SE 7.4 mph11.9 kmh 30.38 in1028.8 mb 0.00 in0.0 mm 0.00 in0.0 mm 0.00 in0.0 mm
04:05 PM 66.6°F19.2°C 49.4°F9.7°C 54% 3.7 mph SSE6.0 kmh SSE 6.3 mph10.1 kmh 30.38 in1028.8 mb 0.00 in0.0 mm 0.00 in0.0 mm 0.00 in0.0 mm
04:10 PM 66.8°F19.3°C 49.5°F9.7°C 54% 4.0 mph S6.4 kmh S 6.3 mph10.1 kmh 30.38 in1028.8 mb 0.00 in0.0 mm 0.00 in0.0 mm 0.00 in0.0 mm
04:15 PM 66.7°F19.3°C 49.1°F9.5°C 53% 3.8 mph S6.1 kmh S 6.3 mph10.1 kmh 30.38 in1028.8 mb 0.00 in0.0 mm 0.00 in0.0 mm 0.00 in0.0 mm
04:20 PM 66.7°F19.3°C 49.4°F9.7°C 54% 3.1 mph S5.0 kmh S 5.8 mph9.3 kmh 30.38 in1028.8 mb 0.00 in0.0 mm 0.00 in0.0 mm 0.00 in0.0 mm
04:25 PM 66.9°F19.4°C 49.4°F9.7°C 53% 3.2 mph S5.1 kmh S 5.1 mph8.2 kmh 30.38 in1028.8 mb 0.00 in0.0 mm 0.00 in0.0 mm 0.00 in0.0 mm
04:30 PM 66.7°F19.3°C 50.2°F10.1°C 55% 3.6 mph SSW5.8 kmh SSW 5.8 mph9.3 kmh 30.38 in1028.8 mb 0.00 in0.0 mm 0.00 in0.0 mm 0.00 in0.0 mm
04:35 PM 66.0°F18.9°C 50.6°F10.3°C 58% 3.7 mph S6.0 kmh S 5.8 mph9.3 kmh 30.38 in1028.8 mb 0.00 in0.0 mm 0.00 in0.0 mm 0.00 in0.0 mm
04:40 PM 65.2°F18.4°C 50.6°F10.3°C 59% 4.0 mph ESE6.4 kmh ESE 6.9 mph11.1 kmh 30.38 in1028.8 mb 0.00 in0.0 mm 0.00 in0.0 mm 0.00 in0.0 mm
04:45 PM 64.7°F18.2°C 50.7°F10.4°C 60% 4.2 mph SE6.8 kmh SE 6.5 mph10.5 kmh 30.38 in1028.8 mb 0.00 in0.0 mm 0.00 in0.0 mm 0.00 in0.0 mm
04:50 PM 64.5°F18.1°C 50.8°F10.4°C 61% 4.7 mph SE7.6 kmh SE 5.4 mph8.7 kmh 30.38 in1028.8 mb 0.00 in0.0 mm 0.00 in0.0 mm 0.00 in0.0 mm
04:55 PM 64.4°F18.0°C 50.8°F10.4°C 61% 4.5 mph SE7.2 kmh SE 6.5 mph10.5 kmh 30.38 in1028.8 mb 0.00 in0.0 mm 0.00 in0.0 mm 0.00 in0.0 mm
05:00 PM 64.1°F17.8°C 51.0°F10.6°C 63% 4.0 mph ESE6.4 kmh ESE 6.3 mph10.1 kmh 30.38 in1028.8 mb 0.00 in0.0 mm 0.00 in0.0 mm 0.00 in0.0 mm
05:05 PM 63.8°F17.7°C 51.1°F10.6°C 63% 4.1 mph SE6.6 kmh SE 5.8 mph9.3 kmh 30.38 in1028.8 mb 0.00 in0.0 mm 0.00 in0.0 mm 0.00 in0.0 mm
05:10 PM 63.4°F17.4°C 51.2°F10.7°C 64% 4.3 mph SE6.9 kmh SE 5.8 mph9.3 kmh 30.38 in1028.8 mb 0.00 in0.0 mm 0.00 in0.0 mm 0.00 in0.0 mm
05:15 PM 63.0°F17.2°C 51.1°F10.6°C 65% 4.4 mph SE7.1 kmh SE 5.4 mph8.7 kmh 30.38 in1028.8 mb 0.00 in0.0 mm 0.00 in0.0 mm 0.00 in0.0 mm
05:20 PM 62.6°F17.0°C 51.1°F10.6°C 66% 4.7 mph SE7.6 kmh SE 5.8 mph9.3 kmh 30.38 in1028.8 mb 0.00 in0.0 mm 0.00 in0.0 mm 0.00 in0.0 mm
05:25 PM 62.3°F16.8°C 50.9°F10.5°C 66% 4.6 mph SE7.4 kmh SE 6.3 mph10.1 kmh 30.38 in1028.8 mb 0.00 in0.0 mm 0.00 in0.0 mm 0.00 in0.0 mm
05:30 PM 62.0°F16.7°C 51.1°F10.6°C 68% 4.3 mph ESE6.9 kmh ESE 6.3 mph10.1 kmh 30.38 in1028.8 mb 0.00 in0.0 mm 0.00 in0.0 mm 0.00 in0.0 mm
05:35 PM 61.6°F16.4°C 51.5°F10.8°C 69% 4.4 mph SE7.1 kmh SE 6.5 mph10.5 kmh 30.38 in1028.8 mb 0.00 in0.0 mm 0.00 in0.0 mm 0.00 in0.0 mm
05:40 PM 61.2°F16.2°C 51.7°F10.9°C 71% 4.7 mph SE7.6 kmh SE 6.5 mph10.5 kmh 30.38 in1028.8 mb 0.00 in0.0 mm 0.00 in0.0 mm 0.00 in0.0 mm
05:45 PM 60.8°F16.0°C 52.0°F11.1°C 73% 4.7 mph SE7.6 kmh SE 6.3 mph10.1 kmh 30.38 in1028.8 mb 0.00 in0.0 mm 0.00 in0.0 mm 0.00 in0.0 mm
05:50 PM 60.4°F15.8°C 52.6°F11.4°C 75% 4.7 mph SE7.6 kmh SE 6.5 mph10.5 kmh 30.38 in1028.8 mb 0.00 in0.0 mm 0.00 in0.0 mm 0.00 in0.0 mm
05:55 PM 60.1°F15.6°C 52.9°F11.6°C 77% 4.6 mph SE7.4 kmh SE 5.1 mph8.2 kmh 30.38 in1028.8 mb 0.00 in0.0 mm 0.00 in0.0 mm 0.00 in0.0 mm
06:00 PM 59.7°F15.4°C 52.9°F11.6°C 78% 4.3 mph SE6.9 kmh SE 5.1 mph8.2 kmh 30.38 in1028.8 mb 0.00 in0.0 mm 0.00 in0.0 mm 0.00 in0.0 mm
06:05 PM 59.4°F15.2°C 52.9°F11.6°C 79% 4.0 mph SE6.4 kmh SE 5.1 mph8.2 kmh 30.38 in1028.8 mb 0.00 in0.0 mm 0.00 in0.0 mm 0.00 in0.0 mm
06:10 PM 59.2°F15.1°C 53.0°F11.7°C 80% 3.1 mph ESE5.0 kmh ESE 4.0 mph6.4 kmh 30.38 in1028.8 mb 0.00 in0.0 mm 0.00 in0.0 mm 0.00 in0.0 mm
06:15 PM 59.0°F15.0°C 52.9°F11.6°C 80% 3.1 mph ESE5.0 kmh ESE 4.0 mph6.4 kmh 30.38 in1028.8 mb 0.00 in0.0 mm 0.00 in0.0 mm 0.00 in0.0 mm
06:20 PM 58.8°F14.9°C 53.0°F11.7°C 81% 2.9 mph E4.7 kmh E 2.9 mph4.7 kmh 30.38 in1028.8 mb 0.00 in0.0 mm 0.00 in0.0 mm 0.00 in0.0 mm
06:25 PM 58.7°F14.8°C 52.8°F11.6°C 81% 2.2 mph E3.5 kmh E 2.9 mph4.7 kmh 30.38 in1028.8 mb 0.00 in0.0 mm 0.00 in0.0 mm 0.00 in0.0 mm
06:30 PM 58.6°F14.8°C 52.8°F11.6°C 81% Calm Calm 1.3 mph2.1 kmh 30.38 in1028.8 mb 0.00 in0.0 mm 0.00 in0.0 mm 0.00 in0.0 mm
06:35 PM 58.5°F14.7°C 52.7°F11.5°C 81% 0.3 mph E0.5 kmh E 3.1 mph5.0 kmh 30.38 in1028.8 mb 0.00 in0.0 mm 0.00 in0.0 mm 0.00 in0.0 mm
06:40 PM 58.3°F14.6°C 52.6°F11.4°C 81% 1.3 mph E2.1 kmh E 3.1 mph5.0 kmh 30.39 in1029.1 mb 0.00 in0.0 mm 0.00 in0.0 mm 0.00 in0.0 mm
06:45 PM 58.3°F14.6°C 52.6°F11.4°C 81% 1.6 mph NE2.6 kmh NE 4.7 mph7.6 kmh 30.39 in1029.1 mb 0.00 in0.0 mm 0.00 in0.0 mm 0.00 in0.0 mm
06:50 PM 58.2°F14.6°C 52.7°F11.5°C 82% 2.5 mph NW4.0 kmh NW 4.0 mph6.4 kmh 30.39 in1029.1 mb 0.00 in0.0 mm 0.00 in0.0 mm 0.00 in0.0 mm
06:55 PM 58.1°F14.5°C 52.6°F11.4°C 82% 2.4 mph NW3.9 kmh NW 2.5 mph4.0 kmh 30.39 in1029.1 mb 0.00 in0.0 mm 0.00 in0.0 mm 0.00 in0.0 mm
07:00 PM 57.9°F14.4°C 52.5°F11.4°C 82% 2.0 mph WNW3.2 kmh WNW 2.0 mph3.2 kmh 30.39 in1029.1 mb 0.00 in0.0 mm 0.00 in0.0 mm 0.00 in0.0 mm
07:05 PM 57.9°F14.4°C 52.5°F11.4°C 82% 1.5 mph WNW2.4 kmh WNW 2.0 mph3.2 kmh 30.39 in1029.1 mb 0.00 in0.0 mm 0.00 in0.0 mm 0.00 in0.0 mm
07:10 PM 57.8°F14.3°C 52.3°F11.3°C 82% Calm Calm -- 30.39 in1029.1 mb 0.00 in0.0 mm 0.00 in0.0 mm 0.00 in0.0 mm
07:15 PM 57.7°F14.3°C 52.4°F11.3°C 83% Calm Calm -- 30.39 in1029.1 mb 0.00 in0.0 mm 0.00 in0.0 mm 0.00 in0.0 mm
07:20 PM 57.6°F14.2°C 52.3°F11.3°C 83% Calm Calm -- 30.39 in1029.1 mb 0.00 in0.0 mm 0.00 in0.0 mm 0.00 in0.0 mm
07:25 PM 57.6°F14.2°C 52.4°F11.3°C 83% Calm Calm 2.5 mph4.0 kmh 30.39 in1029.1 mb 0.00 in0.0 mm 0.00 in0.0 mm 0.00 in0.0 mm
07:30 PM 57.4°F14.1°C 52.2°F11.2°C 83% Calm Calm 3.1 mph5.0 kmh 30.39 in1029.1 mb 0.00 in0.0 mm 0.00 in0.0 mm 0.00 in0.0 mm
07:35 PM 57.3°F14.1°C 51.9°F11.1°C 82% 0.6 mph WNW1.0 kmh WNW 3.6 mph5.8 kmh 30.39 in1029.1 mb 0.00 in0.0 mm 0.00 in0.0 mm 0.00 in0.0 mm
07:40 PM 57.1°F13.9°C 52.0°F11.1°C 83% 2.5 mph WNW4.0 kmh WNW 4.3 mph6.9 kmh 30.39 in1029.1 mb 0.00 in0.0 mm 0.00 in0.0 mm 0.00 in0.0 mm
07:45 PM 57.0°F13.9°C 51.7°F10.9°C 82% 2.7 mph W4.3 kmh W 4.7 mph7.6 kmh 30.39 in1029.1 mb 0.00 in0.0 mm 0.00 in0.0 mm 0.00 in0.0 mm
07:50 PM 56.8°F13.8°C 51.3°F10.7°C 82% 3.6 mph W5.8 kmh W 5.1 mph8.2 kmh 30.39 in1029.1 mb 0.00 in0.0 mm 0.00 in0.0 mm 0.00 in0.0 mm
07:55 PM 56.5°F13.6°C 51.1°F10.6°C 82% 3.7 mph W6.0 kmh W 5.8 mph9.3 kmh 30.39 in1029.1 mb 0.00 in0.0 mm 0.00 in0.0 mm 0.00 in0.0 mm
08:00 PM 56.2°F13.4°C 50.8°F10.4°C 82% 4.0 mph W6.4 kmh W 5.4 mph8.7 kmh 30.39 in1029.1 mb 0.00 in0.0 mm 0.00 in0.0 mm 0.00 in0.0 mm
08:05 PM 56.1°F13.4°C 50.7°F10.4°C 82% 4.0 mph W6.4 kmh W 5.4 mph8.7 kmh 30.39 in1029.1 mb 0.00 in0.0 mm 0.00 in0.0 mm 0.00 in0.0 mm
08:10 PM 55.9°F13.3°C 50.5°F10.3°C 82% 4.0 mph W6.4 kmh W 6.3 mph10.1 kmh 30.40 in1029.5 mb 0.00 in0.0 mm 0.00 in0.0 mm 0.00 in0.0 mm
08:15 PM 55.8°F13.2°C 50.4°F10.2°C 82% 4.2 mph W6.8 kmh W 5.4 mph8.7 kmh 30.40 in1029.5 mb 0.00 in0.0 mm 0.00 in0.0 mm 0.00 in0.0 mm
08:20 PM 55.6°F13.1°C 50.2°F10.1°C 82% 4.7 mph W7.6 kmh W 5.8 mph9.3 kmh 30.40 in1029.5 mb 0.00 in0.0 mm 0.00 in0.0 mm 0.00 in0.0 mm
08:25 PM 55.6°F13.1°C 50.3°F10.2°C 82% 4.5 mph W7.2 kmh W 5.4 mph8.7 kmh 30.40 in1029.5 mb 0.00 in0.0 mm 0.00 in0.0 mm 0.00 in0.0 mm
08:30 PM 55.5°F13.1°C 50.1°F10.1°C 82% 4.0 mph WNW6.4 kmh WNW 5.1 mph8.2 kmh 30.40 in1029.5 mb 0.00 in0.0 mm 0.00 in0.0 mm 0.00 in0.0 mm
08:35 PM 55.3°F12.9°C 50.0°F10.0°C 82% 4.0 mph WNW6.4 kmh WNW 5.1 mph8.2 kmh 30.40 in1029.5 mb 0.00 in0.0 mm 0.00 in0.0 mm 0.00 in0.0 mm
08:40 PM 55.2°F12.9°C 49.8°F9.9°C 82% 4.0 mph W6.4 kmh W 5.4 mph8.7 kmh 30.40 in1029.5 mb 0.00 in0.0 mm 0.00 in0.0 mm 0.00 in0.0 mm
08:45 PM 55.0°F12.8°C 49.6°F9.8°C 82% 4.0 mph W6.4 kmh W 5.4 mph8.7 kmh 30.40 in1029.5 mb 0.00 in0.0 mm 0.00 in0.0 mm 0.00 in0.0 mm
08:50 PM 54.7°F12.6°C 49.4°F9.7°C 82% 4.0 mph WSW6.4 kmh WSW 6.3 mph10.1 kmh 30.40 in1029.5 mb 0.00 in0.0 mm 0.00 in0.0 mm 0.00 in0.0 mm
08:55 PM 54.6°F12.6°C 49.2°F9.6°C 82% 4.3 mph WSW6.9 kmh WSW 8.7 mph14.0 kmh 30.40 in1029.5 mb 0.00 in0.0 mm 0.00 in0.0 mm 0.00 in0.0 mm
09:00 PM 54.4°F12.4°C 49.0°F9.4°C 82% 5.1 mph W8.2 kmh W 7.6 mph12.2 kmh 30.40 in1029.5 mb 0.00 in0.0 mm 0.00 in0.0 mm 0.00 in0.0 mm
09:05 PM 54.3°F12.4°C 48.8°F9.3°C 81% 5.2 mph W8.4 kmh W 5.8 mph9.3 kmh 30.40 in1029.5 mb 0.00 in0.0 mm 0.00 in0.0 mm 0.00 in0.0 mm
09:10 PM 54.3°F12.4°C 48.6°F9.2°C 81% 5.4 mph W8.7 kmh W 6.3 mph10.1 kmh 30.40 in1029.5 mb 0.00 in0.0 mm 0.00 in0.0 mm 0.00 in0.0 mm
09:15 PM 54.1°F12.3°C 48.4°F9.1°C 81% 5.2 mph W8.4 kmh W 7.6 mph12.2 kmh 30.40 in1029.5 mb 0.00 in0.0 mm 0.00 in0.0 mm 0.00 in0.0 mm
09:20 PM 54.1°F12.3°C 48.4°F9.1°C 81% 4.7 mph W7.6 kmh W 7.4 mph11.9 kmh 30.40 in1029.5 mb 0.00 in0.0 mm 0.00 in0.0 mm 0.00 in0.0 mm
09:25 PM 54.0°F12.2°C 48.3°F9.1°C 81% 5.0 mph W8.0 kmh W 8.1 mph13.0 kmh 30.40 in1029.5 mb 0.00 in0.0 mm 0.00 in0.0 mm 0.00 in0.0 mm
09:30 PM 53.8°F12.1°C 47.8°F8.8°C 80% 5.8 mph W9.3 kmh W 6.9 mph11.1 kmh 30.39 in1029.1 mb 0.00 in0.0 mm 0.00 in0.0 mm 0.00 in0.0 mm
09:35 PM 53.8°F12.1°C 47.8°F8.8°C 80% 5.7 mph W9.2 kmh W 7.6 mph12.2 kmh 30.39 in1029.1 mb 0.00 in0.0 mm 0.00 in0.0 mm 0.00 in0.0 mm
09:40 PM 53.6°F12.0°C 47.6°F8.7°C 80% 5.4 mph W8.7 kmh W 8.1 mph13.0 kmh 30.39 in1029.1 mb 0.00 in0.0 mm 0.00 in0.0 mm 0.00 in0.0 mm
09:45 PM 53.7°F12.1°C 47.7°F8.7°C 80% 5.6 mph W9.0 kmh W 7.6 mph12.2 kmh 30.39 in1029.1 mb 0.00 in0.0 mm 0.00 in0.0 mm 0.00 in0.0 mm
09:50 PM 53.8°F12.1°C 47.5°F8.6°C 79% 6.3 mph W10.1 kmh W 8.5 mph13.7 kmh 30.39 in1029.1 mb 0.00 in0.0 mm 0.00 in0.0 mm 0.00 in0.0 mm
09:55 PM 53.7°F12.1°C 47.4°F8.6°C 79% 6.5 mph WSW10.5 kmh WSW 10.7 mph17.2 kmh 30.39 in1029.1 mb 0.00 in0.0 mm 0.00 in0.0 mm 0.00 in0.0 mm
10:00 PM 53.8°F12.1°C 47.4°F8.6°C 79% 7.4 mph WSW11.9 kmh WSW 10.3 mph16.6 kmh 30.39 in1029.1 mb 0.00 in0.0 mm 0.00 in0.0 mm 0.00 in0.0 mm
10:05 PM 53.9°F12.2°C 47.5°F8.6°C 79% 7.7 mph WSW12.4 kmh WSW 10.1 mph16.3 kmh 30.39 in1029.1 mb 0.00 in0.0 mm 0.00 in0.0 mm 0.00 in0.0 mm
10:10 PM 54.0°F12.2°C 47.3°F8.5°C 78% 8.5 mph WSW13.7 kmh WSW 9.6 mph15.4 kmh 30.40 in1029.5 mb 0.00 in0.0 mm 0.00 in0.0 mm 0.00 in0.0 mm
10:15 PM 54.0°F12.2°C 47.3°F8.5°C 78% 8.3 mph WSW13.4 kmh WSW 8.5 mph13.7 kmh 30.40 in1029.5 mb 0.00 in0.0 mm 0.00 in0.0 mm 0.00 in0.0 mm
10:20 PM 54.0°F12.2°C 47.3°F8.5°C 78% 7.6 mph WSW12.2 kmh WSW 7.6 mph12.2 kmh 30.40 in1029.5 mb 0.00 in0.0 mm 0.00 in0.0 mm 0.00 in0.0 mm
10:25 PM 53.9°F12.2°C 47.0°F8.3°C 78% 7.3 mph WSW11.7 kmh WSW 7.6 mph12.2 kmh 30.40 in1029.5 mb 0.00 in0.0 mm 0.00 in0.0 mm 0.00 in0.0 mm
10:30 PM 53.7°F12.1°C 46.7°F8.2°C 77% 6.3 mph WSW10.1 kmh WSW 8.5 mph13.7 kmh 30.40 in1029.5 mb 0.00 in0.0 mm 0.00 in0.0 mm 0.00 in0.0 mm
10:35 PM 53.5°F11.9°C 46.4°F8.0°C 77% 6.3 mph WSW10.1 kmh WSW 8.7 mph14.0 kmh 30.40 in1029.5 mb 0.00 in0.0 mm 0.00 in0.0 mm 0.00 in0.0 mm
10:40 PM 53.2°F11.8°C 46.2°F7.9°C 77% 6.5 mph WSW10.5 kmh WSW 8.7 mph14.0 kmh 30.40 in1029.5 mb 0.00 in0.0 mm 0.00 in0.0 mm 0.00 in0.0 mm
10:45 PM 53.1°F11.7°C 46.1°F7.8°C 77% 6.3 mph WSW10.1 kmh WSW 6.5 mph10.5 kmh 30.39 in1029.1 mb 0.00 in0.0 mm 0.00 in0.0 mm 0.00 in0.0 mm
10:50 PM 52.9°F11.6°C 46.2°F7.9°C 78% 5.8 mph WSW9.3 kmh WSW 6.5 mph10.5 kmh 30.39 in1029.1 mb 0.00 in0.0 mm 0.00 in0.0 mm 0.00 in0.0 mm
10:55 PM 52.8°F11.6°C 46.1°F7.8°C 78% 5.5 mph WSW8.9 kmh WSW 5.8 mph9.3 kmh 30.39 in1029.1 mb 0.00 in0.0 mm 0.00 in0.0 mm 0.00 in0.0 mm
11:00 PM 52.5°F11.4°C 45.9°F7.7°C 78% 4.7 mph WSW7.6 kmh WSW 5.8 mph9.3 kmh 30.39 in1029.1 mb 0.00 in0.0 mm 0.00 in0.0 mm 0.00 in0.0 mm
11:05 PM 52.5°F11.4°C 45.8°F7.7°C 78% 4.5 mph WSW7.2 kmh WSW 4.7 mph7.6 kmh 30.39 in1029.1 mb 0.00 in0.0 mm 0.00 in0.0 mm 0.00 in0.0 mm
11:10 PM 52.3°F11.3°C 45.7°F7.6°C 78% 4.0 mph WSW6.4 kmh WSW 5.8 mph9.3 kmh 30.39 in1029.1 mb 0.00 in0.0 mm 0.00 in0.0 mm 0.00 in0.0 mm
11:15 PM 52.2°F11.2°C 45.9°F7.7°C 79% 4.0 mph WSW6.4 kmh WSW 6.3 mph10.1 kmh 30.39 in1029.1 mb 0.00 in0.0 mm 0.00 in0.0 mm 0.00 in0.0 mm
11:20 PM 52.1°F11.2°C 45.8°F7.7°C 79% 4.0 mph WSW6.4 kmh WSW 9.2 mph14.8 kmh 30.39 in1029.1 mb 0.00 in0.0 mm 0.00 in0.0 mm 0.00 in0.0 mm
11:25 PM 52.0°F11.1°C 45.7°F7.6°C 79% 4.6 mph WSW7.4 kmh WSW 8.7 mph14.0 kmh 30.39 in1029.1 mb 0.00 in0.0 mm 0.00 in0.0 mm 0.00 in0.0 mm
11:30 PM 51.9°F11.1°C 45.6°F7.6°C 79% 6.3 mph WSW10.1 kmh WSW 10.1 mph16.3 kmh 30.39 in1029.1 mb 0.00 in0.0 mm 0.00 in0.0 mm 0.00 in0.0 mm
11:35 PM 51.8°F11.0°C 45.5°F7.5°C 79% 6.6 mph WSW10.6 kmh WSW 10.1 mph16.3 kmh 30.39 in1029.1 mb 0.00 in0.0 mm 0.00 in0.0 mm 0.00 in0.0 mm
11:40 PM 51.9°F11.1°C 45.9°F7.7°C 80% 7.6 mph WSW12.2 kmh WSW 11.2 mph18.0 kmh 30.39 in1029.1 mb 0.00 in0.0 mm 0.00 in0.0 mm 0.00 in0.0 mm
11:45 PM 52.0°F11.1°C 45.7°F7.6°C 79% 7.9 mph WSW12.7 kmh WSW 11.2 mph18.0 kmh 30.39 in1029.1 mb 0.00 in0.0 mm 0.00 in0.0 mm 0.00 in0.0 mm
11:50 PM 52.0°F11.1°C 45.7°F7.6°C 79% 8.7 mph WSW14.0 kmh WSW 11.4 mph18.3 kmh 30.39 in1029.1 mb 0.00 in0.0 mm 0.00 in0.0 mm 0.00 in0.0 mm
11:55 PM 52.0°F11.1°C 45.7°F7.6°C 79% 8.7 mph WSW14.0 kmh WSW 11.9 mph19.2 kmh 30.39 in1029.1 mb 0.00 in0.0 mm 0.00 in0.0 mm 0.00 in0.0 mm